Ariel, WA

5:04 PM PST on February 25, 2017 (GMT -0800)
Etna | | Change Station
Active Advisory: Winter Weather Advisory

Elev 300 ft 45.94 °N, 122.58 °W | Updated 15 seconds ago

Overcast
Overcast
44.5 °F
Feels Like 44 °F
N
0.0
Wind Variable Wind from NNW
Gusts 2.0 mph

Today
High -- | Low -- °F
--% Chance of Precip.
Yesterday
High -- | Low -- °F
Precip. -- in
Pressure 30.12 in
Visibility 10.0 miles
Clouds Few 4900 ft
Mostly Cloudy 7000 ft
Windchill 44 °F
Dew Point 23 °F
Humidity 42%
Rainfall 0.00 in
Snow Depth Not available.
6:55 AM 5:51 PM
Waning Crescent, 0% visible
METAR KSPB 260053Z AUTO 00000KT 10SM FEW049 BKN070 07/03 A3012 RMK AO2 SLP198 T00720033
Pressure 30.12 in
Visibility 10.0 miles
Clouds Few 4900 ft
Mostly Cloudy 7000 ft
Windchill 44 °F
Dew Point 23 °F
Humidity 42%
Rainfall 0.00 in
Snow Depth Not available.
6:55 AM 5:51 PM
Waning Crescent, 0% visible
METAR KSPB 260053Z AUTO 00000KT 10SM FEW049 BKN070 07/03 A3012 RMK AO2 SLP198 T00720033

Get Your Daily Forecast Email!

Thanks for signing up!

Be on the lookout for a verification email in your inbox.

You'll start receiving the daily forecast at 8 AM.

×

10-Day Weather Forecast

Almanac

Astronomy

Feb. 25, 2017 Rise Set
Actual Time
Civil Twilight
Nautical Twilight
Astronomical Twilight
Moon
Length of Visible Light
Length of Day
Tomorrow will be .
, % of the Moon is Illuminated

Today's Extremes

State Highs State Lows

Community

WunderPhotos

Upload Photos

1,962,540 photos uploaded!

WunderBlog® & News

Nearby

Air Quality

  Air Quality AQ Index Pollutant
Not available.

Snow Depth

Station Depth Elevation

Earthquake Activity

City Distance Mag. Time & Date
Minimum magnitude displayed is 2.5.

Coastal Water Temperatures

Place Temperature

Stations

Nearby Weather Stations

Station Location Temp. Windchill Dew Point Humidity Wind Precip. Elev Updated Type
                   

Watches & Warnings

Winter Weather Advisory
Issued: 11:04 AM PST Feb. 25, 2017 – National Weather Service

... Winter Weather Advisory remains in effect from 1 am to 4 PM
PST Sunday...

* timing... late tonight through late Monday afternoon. Heaviest
between 6 am and 10 am.

* Snow level... around 1000 feet.

* Snow accumulations... 3 to 5 inches.

* Impacts... roads will be snow covered and slick with winter-
like travel conditions.

Precautionary/preparedness actions...

A Winter Weather Advisory for snow means that periods of snow
will cause primarily travel difficulties. Be prepared for snow
covered roads and limited visibilities, and use caution while
driving.